LIMP/PMF METAR and TAF weather

Enter ICAO airport designator
Station Type Date Time Source
LIMP METAR 2022/12/08 12:50 UTC NOAA

LIMP 081250Z 32005KT 2500 BR BKN010 07/06 Q1011


Station Type Date Time Source
LIMP Decoded METAR 2022/12/08 12:50 UTC NOAA

Parma, Italy (LIMP) 44-49-17N 010-17-41E
Dec 08, 2022 - 07:50 AM EST / 2022.12.08 1250 UTC
Wind: from the NW (320 degrees) at 6 MPH (5 KT):0
Visibility: 1 mile(s):0
Sky conditions: mostly cloudy
Weather: mist
Temperature: 44 F (7 C)
Dew Point: 42 F (6 C)
Relative Humidity: 93%
Pressure (altimeter): 29.85 in. Hg (1011 hPa)
ob: LIMP 081250Z 32005KT 2500 BR BKN010 07/06 Q1011
cycle: 13

Station Type Date Time Source
LIMP TAF 2022/12/08 12:21 UTC NOAA

TAF LIMP 081100Z 0812/0912 VRB04KT 6000 SCT050
BECMG 0820/0822 3000 RA
BECMG 0910/0912 8000 NSW

Example: see airport list